Time;durP1;ratioP1;P1;durP2;ratioP2;P2;SDS_P1;SDS_P2;PMS_P1;PMS_P2;Temp;Humidity;BMP_temperature;BMP_pressure;BME280_temperature;BME280_humidity;BME280_pressure;Samples;Min_cycle;Max_cycle;Signal;HPM_P1;HPM_P2
2021/09/24 00:02:10;;;;;;;13.90;4.10;;;13.80;1.00;;;;;;5064937;28;20478;-85
2021/09/24 00:04:38;;;;;;;16.17;4.63;;;13.80;1.00;;;;;;5059570;28;21504;-86
2021/09/24 00:07:07;;;;;;;16.90;4.70;;;13.80;1.00;;;;;;5053484;28;20457;-87
2021/09/24 00:09:36;;;;;;;18.87;5.57;;;13.80;1.00;;;;;;5058140;28;20464;-87
2021/09/24 00:12:04;;;;;;;15.10;5.10;;;13.70;1.00;;;;;;5062568;28;20455;-86
2021/09/24 00:14:32;;;;;;;17.47;4.33;;;13.70;1.00;;;;;;5060054;28;21376;-85
2021/09/24 00:17:01;;;;;;;13.30;4.93;;;13.70;1.00;;;;;;5057582;28;20510;-87
2021/09/24 00:19:28;;;;;;;15.43;5.43;;;13.70;1.00;;;;;;5055460;28;21449;-85
2021/09/24 00:21:54;;;;;;;16.37;4.90;;;13.70;1.00;;;;;;5057112;28;20431;-84
2021/09/24 00:24:21;;;;;;;15.40;4.70;;;13.70;1.00;;;;;;5057241;28;20419;-85
2021/09/24 00:26:48;;;;;;;17.10;5.20;;;13.70;1.00;;;;;;5053826;28;20443;-84
2021/09/24 00:29:16;;;;;;;17.33;4.77;;;13.60;1.00;;;;;;5058791;28;21327;-86
2021/09/24 00:31:43;;;;;;;12.20;4.10;;;13.60;1.00;;;;;;5065101;28;20482;-86
2021/09/24 00:34:11;;;;;;;14.13;4.80;;;13.60;1.00;;;;;;5065800;28;21339;-86
2021/09/24 00:36:38;;;;;;;18.53;5.20;;;13.50;1.00;;;;;;5053297;28;20455;-85
2021/09/24 00:39:05;;;;;;;15.73;4.40;;;13.50;1.00;;;;;;5050304;28;20981;-84
2021/09/24 00:41:32;;;;;;;23.57;5.17;;;13.50;1.00;;;;;;5049815;28;20484;-84
2021/09/24 00:43:59;;;;;;;18.27;5.50;;;13.50;1.00;;;;;;5047811;28;21218;-86
2021/09/24 00:46:26;;;;;;;14.03;5.03;;;13.50;1.00;;;;;;5047385;28;22292;-86
2021/09/24 00:48:52;;;;;;;18.80;5.33;;;13.40;1.00;;;;;;5055809;28;20456;-87
2021/09/24 00:51:21;;;;;;;20.63;5.40;;;13.40;1.00;;;;;;5058779;28;20918;-86
2021/09/24 00:53:48;;;;;;;17.47;5.17;;;13.40;1.00;;;;;;5055928;28;20575;-86
2021/09/24 00:56:15;;;;;;;13.57;5.60;;;13.40;1.00;;;;;;5059363;28;20482;-86
2021/09/24 00:58:42;;;;;;;13.27;5.30;;;13.40;1.00;;;;;;5069700;28;20455;-85
2021/09/24 01:01:09;;;;;;;17.40;5.00;;;13.30;1.00;;;;;;5065939;28;20408;-86
2021/09/24 01:03:36;;;;;;;17.00;5.47;;;13.30;1.00;;;;;;5061174;28;20456;-86
2021/09/24 01:06:03;;;;;;;16.20;5.10;;;13.30;1.00;;;;;;5059003;28;20445;-86
2021/09/24 01:08:32;;;;;;;15.03;4.80;;;13.30;1.00;;;;;;5060263;28;20963;-86
2021/09/24 01:10:59;;;;;;;18.77;5.70;;;13.30;1.00;;;;;;5060802;28;20487;-86
2021/09/24 01:13:26;;;;;;;16.40;5.90;;;13.30;1.00;;;;;;5059339;28;20931;-85
2021/09/24 01:15:53;;;;;;;18.50;5.43;;;13.30;1.00;;;;;;5060634;28;20470;-84
2021/09/24 01:18:20;;;;;;;16.03;5.27;;;13.40;1.00;;;;;;5062342;28;20802;-86
2021/09/24 01:20:48;;;;;;;19.43;5.20;;;13.40;1.00;;;;;;5064058;28;21081;-86
2021/09/24 01:23:16;;;;;;;19.17;5.10;;;13.40;1.00;;;;;;5060582;28;20448;-86
2021/09/24 01:25:43;;;;;;;16.13;4.50;;;13.40;1.00;;;;;;5065421;28;21009;-85
2021/09/24 01:28:10;;;;;;;19.13;4.50;;;13.50;1.00;;;;;;5061810;28;20462;-86
2021/09/24 01:30:37;;;;;;;17.70;5.17;;;13.50;1.00;;;;;;5060241;28;20529;-86
2021/09/24 01:33:04;;;;;;;18.10;5.70;;;13.50;1.00;;;;;;5054886;28;20523;-86
2021/09/24 01:35:31;;;;;;;16.73;5.33;;;13.60;1.00;;;;;;5057860;28;20518;-85
2021/09/24 01:37:58;;;;;;;16.37;5.23;;;13.60;1.00;;;;;;5065350;28;20423;-85
2021/09/24 01:40:26;;;;;;;10.93;4.30;;;13.60;1.00;;;;;;5071883;28;20452;-87
2021/09/24 01:42:55;;;;;;;17.90;4.73;;;13.70;1.00;;;;;;5072284;28;20429;-84
2021/09/24 01:45:22;;;;;;;11.60;5.10;;;13.70;1.00;;;;;;5068494;28;20436;-88
2021/09/24 01:47:49;;;;;;;21.07;6.13;;;13.70;1.00;;;;;;5061486;28;20431;-85
2021/09/24 01:50:16;;;;;;;15.03;4.80;;;13.70;1.00;;;;;;5071839;28;20459;-84
2021/09/24 01:52:43;;;;;;;15.40;4.57;;;13.70;1.00;;;;;;5086335;28;21343;-85
2021/09/24 01:57:47;;;;;;;16.43;5.47;;;13.70;1.00;;;;;;5353704;22;20435;-88
2021/09/24 02:02:49;;;;;;;14.63;4.83;;;13.70;1.00;;;;;;5418632;22;21181;-86
2021/09/24 02:05:16;;;;;;;15.70;4.77;;;13.70;1.00;;;;;;5071782;28;20491;-85
2021/09/24 02:07:42;;;;;;;19.67;5.30;;;13.60;1.00;;;;;;5048467;28;20531;-89
2021/09/24 02:10:11;;;;;;;15.37;5.37;;;13.70;1.00;;;;;;5051598;28;20490;-86
2021/09/24 02:12:40;;;;;;;18.53;5.57;;;13.60;1.00;;;;;;5051697;28;20443;-87
2021/09/24 02:15:09;;;;;;;21.10;6.30;;;13.70;1.00;;;;;;5048205;28;20428;-87
2021/09/24 02:20:33;;;;;;;16.23;5.50;;;13.70;1.00;;;;;;5182008;22;20448;-87
2021/09/24 02:23:00;;;;;;;13.00;4.23;;;13.70;1.00;;;;;;5077279;28;20446;-88
2021/09/24 02:25:27;;;;;;;15.40;5.80;;;13.70;1.00;;;;;;5071241;28;20411;-90
2021/09/24 02:27:54;;;;;;;19.37;4.80;;;13.60;1.00;;;;;;5070365;28;20507;-88
2021/09/24 02:30:22;;;;;;;21.30;5.07;;;13.60;1.00;;;;;;5073203;28;20451;-87
2021/09/24 02:32:49;;;;;;;15.37;5.00;;;13.60;1.00;;;;;;5074662;28;20413;-91
2021/09/24 02:35:17;;;;;;;15.50;5.00;;;13.60;1.00;;;;;;5076736;28;20455;-89
2021/09/24 02:37:44;;;;;;;12.60;5.07;;;13.60;1.00;;;;;;5070218;28;20396;-91
2021/09/24 02:40:11;;;;;;;16.13;4.53;;;13.60;1.00;;;;;;5087776;27;20434;-92
2021/09/24 02:42:39;;;;;;;13.40;5.00;;;13.60;1.00;;;;;;5074982;28;20403;-91
2021/09/24 02:45:07;;;;;;;14.80;4.80;;;13.60;1.00;;;;;;5071227;28;20504;-90
2021/09/24 02:47:35;;;;;;;15.93;6.10;;;13.60;1.00;;;;;;5074421;28;20405;-91
2021/09/24 02:50:02;;;;;;;13.70;5.40;;;13.70;1.00;;;;;;5075481;28;20522;-92
2021/09/24 02:52:29;;;;;;;15.67;6.07;;;13.70;1.00;;;;;;5081073;28;20412;-91
2021/09/24 02:54:56;;;;;;;14.27;5.20;;;13.70;1.00;;;;;;5076384;28;20413;-92
2021/09/24 02:57:23;;;;;;;14.67;4.60;;;13.70;1.00;;;;;;5078743;28;20468;-90
2021/09/24 02:59:49;;;;;;;17.00;4.30;;;13.70;1.00;;;;;;5071142;28;20418;-91
2021/09/24 03:02:16;;;;;;;19.97;5.23;;;13.70;1.00;;;;;;5071542;28;20469;-90
2021/09/24 03:04:45;;;;;;;11.47;5.30;;;13.70;1.00;;;;;;5071207;28;20425;-88
2021/09/24 03:07:12;;;;;;;15.53;5.63;;;13.70;1.00;;;;;;5069741;28;20429;-91
2021/09/24 03:09:39;;;;;;;15.57;4.33;;;13.70;1.00;;;;;;5069045;28;20442;-89
2021/09/24 03:12:07;;;;;;;13.43;4.27;;;13.70;1.00;;;;;;5076599;28;20389;-90
2021/09/24 03:14:34;;;;;;;11.97;4.53;;;13.70;1.00;;;;;;5072450;28;20426;-91
2021/09/24 03:17:01;;;;;;;10.63;4.57;;;13.70;1.00;;;;;;5074928;28;20479;-89
2021/09/24 03:19:27;;;;;;;19.37;5.70;;;13.70;1.00;;;;;;5080474;28;20617;-88
2021/09/24 03:21:56;;;;;;;17.23;5.30;;;13.70;1.00;;;;;;5071501;28;20476;-91
2021/09/24 03:24:23;;;;;;;20.73;5.60;;;13.70;1.00;;;;;;5067965;28;20469;-90
2021/09/24 03:26:50;;;;;;;16.10;4.97;;;13.70;1.00;;;;;;5076825;28;20499;-89
2021/09/24 03:29:17;;;;;;;14.37;3.77;;;13.70;1.00;;;;;;5078483;28;20485;-90
2021/09/24 03:31:44;;;;;;;16.10;4.50;;;13.70;1.00;;;;;;5071711;28;20457;-87
2021/09/24 03:34:11;;;;;;;19.00;5.60;;;13.70;1.00;;;;;;5076296;28;20419;-87
2021/09/24 03:36:38;;;;;;;18.37;5.30;;;13.70;1.00;;;;;;5069122;28;20443;-87
2021/09/24 03:39:11;;;;;;;15.47;4.37;;;13.80;1.00;;;;;;5065881;28;20447;-88
2021/09/24 03:44:51;;;;;;;15.10;5.00;;;13.80;1.00;;;;;;5069839;28;20428;-87
2021/09/24 03:47:18;;;;;;;14.13;4.53;;;13.70;1.00;;;;;;5069977;28;20438;-86
2021/09/24 03:49:46;;;;;;;13.60;3.87;;;13.70;1.00;;;;;;5073143;28;20802;-86
2021/09/24 03:52:14;;;;;;;17.07;4.87;;;13.80;1.00;;;;;;5068856;28;20437;-86
2021/09/24 03:54:43;;;;;;;18.40;5.37;;;13.70;1.00;;;;;;5073232;28;20481;-87
2021/09/24 03:57:10;;;;;;;18.00;4.50;;;13.80;1.00;;;;;;5066186;28;20424;-88
2021/09/24 03:59:37;;;;;;;16.03;5.20;;;13.70;1.00;;;;;;5061394;28;20467;-87
2021/09/24 04:02:04;;;;;;;18.13;4.93;;;13.70;1.00;;;;;;5063486;28;20442;-89
2021/09/24 04:04:31;;;;;;;16.83;5.77;;;13.70;1.00;;;;;;5066211;28;20435;-88
2021/09/24 04:06:58;;;;;;;16.70;5.33;;;13.70;1.00;;;;;;5062735;28;20448;-89
2021/09/24 04:09:26;;;;;;;11.03;4.10;;;13.60;1.00;;;;;;5052821;28;20540;-83
2021/09/24 04:11:54;;;;;;;19.80;5.63;;;13.60;1.00;;;;;;5048689;28;20423;-81
2021/09/24 04:14:21;;;;;;;15.93;4.40;;;13.60;1.00;;;;;;5045347;28;20453;-81
2021/09/24 04:16:47;;;;;;;21.10;5.27;;;13.60;1.00;;;;;;5027613;28;21674;-81
2021/09/24 04:19:14;;;;;;;11.50;4.07;;;13.50;1.00;;;;;;5028575;28;20467;-81
2021/09/24 04:21:41;;;;;;;15.20;4.83;;;13.50;1.00;;;;;;5028056;28;20537;-81
2021/09/24 04:24:07;;;;;;;15.10;5.13;;;13.60;1.00;;;;;;5030050;28;21282;-81
2021/09/24 04:26:34;;;;;;;15.90;4.40;;;13.60;1.00;;;;;;5022383;28;21756;-81
2021/09/24 04:29:05;;;;;;;19.43;5.77;;;13.50;1.00;;;;;;5033411;28;20461;-80
2021/09/24 04:31:32;;;;;;;16.10;5.63;;;13.50;1.00;;;;;;5024391;28;20516;-82
2021/09/24 04:33:59;;;;;;;14.27;5.50;;;13.50;1.00;;;;;;5031557;28;21336;-77
2021/09/24 04:36:25;;;;;;;21.63;6.40;;;13.40;1.00;;;;;;5032421;28;20461;-77
2021/09/24 04:38:52;;;;;;;16.97;5.50;;;13.40;1.00;;;;;;5031106;28;20557;-78
2021/09/24 04:41:19;;;;;;;19.10;5.23;;;13.40;1.00;;;;;;5029842;28;20451;-77
2021/09/24 04:43:45;;;;;;;23.20;6.13;;;13.40;1.00;;;;;;5035324;28;20555;-77
2021/09/24 04:46:13;;;;;;;14.80;5.50;;;13.40;1.00;;;;;;5028369;28;20543;-80
2021/09/24 04:48:49;;;;;;;14.43;4.60;;;13.40;1.00;;;;;;5036151;28;20472;-78
2021/09/24 04:51:25;;;;;;;17.67;5.83;;;13.40;1.00;;;;;;5066910;28;20424;-78
2021/09/24 04:53:52;;;;;;;24.03;6.00;;;13.40;1.00;;;;;;5070955;28;20400;-79
2021/09/24 04:56:19;;;;;;;13.73;5.00;;;13.40;1.00;;;;;;5063341;28;20450;-78
2021/09/24 04:58:46;;;;;;;17.70;5.57;;;13.40;1.00;;;;;;5062060;28;20429;-78
2021/09/24 05:01:16;;;;;;;12.30;4.23;;;13.40;1.00;;;;;;5062241;28;20424;-78
2021/09/24 05:03:43;;;;;;;17.30;5.30;;;13.40;1.00;;;;;;5063803;28;20553;-80
2021/09/24 05:08:55;;;;;;;18.53;5.33;;;13.40;1.00;;;;;;5053796;28;20426;-77
2021/09/24 05:11:32;;;;;;;20.87;5.83;;;13.50;1.00;;;;;;5043570;28;20450;-78
2021/09/24 05:14:02;;;;;;;18.83;5.07;;;13.50;1.00;;;;;;5049768;28;20452;-78
2021/09/24 05:16:31;;;;;;;14.57;4.80;;;13.50;1.00;;;;;;5027046;28;20474;-79
2021/09/24 05:18:58;;;;;;;15.67;6.03;;;13.50;1.00;;;;;;5020277;28;20521;-79
2021/09/24 05:21:24;;;;;;;14.93;4.67;;;13.50;1.00;;;;;;5028816;28;20452;-79
2021/09/24 05:23:51;;;;;;;18.80;5.10;;;13.50;1.00;;;;;;5023511;28;20573;-81
2021/09/24 05:26:18;;;;;;;24.80;5.90;;;13.50;1.00;;;;;;5030166;28;20445;-79
2021/09/24 05:28:45;;;;;;;18.50;5.73;;;13.50;1.00;;;;;;5024779;28;20551;-81
2021/09/24 05:31:12;;;;;;;18.00;5.60;;;13.50;1.00;;;;;;5028814;28;20448;-80
2021/09/24 05:33:40;;;;;;;19.17;5.37;;;13.50;1.00;;;;;;5020607;28;20416;-78
2021/09/24 05:36:11;;;;;;;16.50;6.00;;;13.40;1.00;;;;;;5001433;28;20546;-80
2021/09/24 05:38:37;;;;;;;18.33;5.50;;;13.40;1.00;;;;;;5013166;28;20640;-79
2021/09/24 05:41:04;;;;;;;20.23;5.77;;;13.40;1.00;;;;;;5021387;28;20636;-79
2021/09/24 05:43:31;;;;;;;19.03;8.10;;;13.40;1.00;;;;;;5017993;28;20581;-79
2021/09/24 05:45:58;;;;;;;23.87;5.97;;;13.40;1.00;;;;;;5002348;28;20424;-79
2021/09/24 05:48:25;;;;;;;14.73;5.00;;;13.40;1.00;;;;;;5011734;28;20639;-78
2021/09/24 05:50:53;;;;;;;19.20;5.33;;;13.40;1.00;;;;;;5012871;28;20448;-78
2021/09/24 05:53:20;;;;;;;15.57;4.70;;;13.50;1.00;;;;;;5015827;28;20483;-78
2021/09/24 05:55:46;;;;;;;19.17;5.47;;;13.50;1.00;;;;;;5018327;28;20473;-78
2021/09/24 05:58:13;;;;;;;18.90;5.80;;;13.60;1.00;;;;;;5009103;28;20477;-78
2021/09/24 06:00:40;;;;;;;13.20;4.60;;;13.60;1.00;;;;;;5012611;28;20914;-78
2021/09/24 06:03:07;;;;;;;18.43;5.40;;;13.60;1.00;;;;;;5008593;28;21838;-78
2021/09/24 06:05:34;;;;;;;22.13;5.87;;;13.50;1.00;;;;;;5010070;28;20535;-80
2021/09/24 06:08:03;;;;;;;17.33;6.13;;;13.40;1.00;;;;;;5010515;28;21606;-79
2021/09/24 06:10:30;;;;;;;19.73;5.27;;;13.40;1.00;;;;;;5018935;28;20466;-78
2021/09/24 06:12:56;;;;;;;14.03;5.63;;;13.40;1.00;;;;;;5008088;28;21670;-78
2021/09/24 06:15:25;;;;;;;18.97;6.03;;;13.40;1.00;;;;;;5011187;28;20527;-78
2021/09/24 06:17:52;;;;;;;22.60;5.70;;;13.50;1.00;;;;;;5008171;28;20492;-78
2021/09/24 06:20:20;;;;;;;17.03;6.53;;;13.50;1.00;;;;;;5006458;28;20471;-78
2021/09/24 06:22:47;;;;;;;21.37;6.90;;;13.60;1.00;;;;;;5004964;28;20448;-78
2021/09/24 06:25:16;;;;;;;16.53;5.47;;;13.50;1.00;;;;;;5006633;28;20433;-78
2021/09/24 06:27:44;;;;;;;17.50;4.83;;;13.50;1.00;;;;;;5006567;28;20544;-77
2021/09/24 06:30:13;;;;;;;16.30;5.47;;;13.50;1.00;;;;;;5007427;28;20460;-78
2021/09/24 06:32:40;;;;;;;18.73;6.27;;;13.50;1.00;;;;;;5005381;28;20923;-79
2021/09/24 06:35:08;;;;;;;18.50;5.20;;;13.50;1.00;;;;;;5007630;28;20560;-78
2021/09/24 06:37:35;;;;;;;15.20;4.40;;;13.40;1.00;;;;;;5006313;28;21151;-78
2021/09/24 06:40:02;;;;;;;21.80;5.60;;;13.40;1.00;;;;;;5008065;28;20519;-78
2021/09/24 06:42:30;;;;;;;15.13;4.93;;;13.40;1.00;;;;;;5007054;28;20599;-79
2021/09/24 06:44:57;;;;;;;15.10;5.00;;;13.40;1.00;;;;;;5014375;28;20459;-78
2021/09/24 06:47:24;;;;;;;15.73;5.13;;;13.40;1.00;;;;;;5011304;28;20575;-77
2021/09/24 06:49:51;;;;;;;18.90;5.10;;;13.50;1.00;;;;;;5009126;28;21232;-78
2021/09/24 06:52:19;;;;;;;14.83;4.60;;;13.50;1.00;;;;;;5011808;28;20479;-79
2021/09/24 06:54:46;;;;;;;20.87;6.47;;;13.50;1.00;;;;;;5008410;28;21825;-79
2021/09/24 06:57:13;;;;;;;15.40;4.90;;;13.60;1.00;;;;;;5013533;28;20593;-79
2021/09/24 06:59:41;;;;;;;14.83;5.30;;;13.70;1.00;;;;;;5013224;28;20452;-78
2021/09/24 07:02:08;;;;;;;18.83;5.17;;;13.70;1.00;;;;;;5010174;28;21322;-78
2021/09/24 07:04:34;;;;;;;20.63;6.47;;;13.70;1.00;;;;;;5007885;28;20495;-77
2021/09/24 07:07:01;;;;;;;20.17;5.63;;;13.80;1.00;;;;;;5014247;28;20468;-78
2021/09/24 07:09:28;;;;;;;14.87;5.37;;;13.80;1.00;;;;;;5011707;28;20548;-77
2021/09/24 07:11:55;;;;;;;13.17;5.63;;;13.80;1.00;;;;;;5007626;28;20450;-77
2021/09/24 07:14:21;;;;;;;17.17;6.00;;;13.80;1.00;;;;;;5007913;28;20458;-78
2021/09/24 07:16:50;;;;;;;16.23;5.47;;;13.90;1.00;;;;;;5013431;28;20461;-77
2021/09/24 07:19:17;;;;;;;18.87;6.00;;;14.00;1.00;;;;;;5012504;28;20436;-77
2021/09/24 07:21:44;;;;;;;17.00;5.33;;;14.00;1.00;;;;;;5007353;28;20545;-77
2021/09/24 07:24:11;;;;;;;15.87;4.47;;;14.00;1.00;;;;;;5007024;28;20464;-78
2021/09/24 07:26:39;;;;;;;13.60;4.80;;;14.00;1.00;;;;;;5008788;28;21053;-77
2021/09/24 07:29:06;;;;;;;18.73;5.37;;;14.10;1.00;;;;;;5010266;28;20457;-78
2021/09/24 07:31:32;;;;;;;19.70;6.43;;;14.20;1.00;;;;;;5010839;28;20452;-78
2021/09/24 07:34:00;;;;;;;17.07;5.10;;;14.20;1.00;;;;;;5021061;28;20604;-78
2021/09/24 07:36:27;;;;;;;14.40;4.90;;;14.30;1.00;;;;;;5023511;28;20446;-79
2021/09/24 07:38:55;;;;;;;18.03;6.17;;;14.40;1.00;;;;;;5010229;28;20980;-77
2021/09/24 07:41:23;;;;;;;13.97;4.57;;;14.40;1.00;;;;;;5014628;28;22264;-78
2021/09/24 07:43:52;;;;;;;12.80;5.23;;;14.50;1.00;;;;;;5003851;28;21180;-77
2021/09/24 07:46:20;;;;;;;16.03;5.90;;;14.50;1.00;;;;;;5011682;28;20469;-78
2021/09/24 07:48:47;;;;;;;13.40;4.27;;;14.60;1.00;;;;;;5018530;28;20447;-79
2021/09/24 07:51:16;;;;;;;16.23;5.80;;;14.60;1.00;;;;;;5016197;28;21313;-79
2021/09/24 07:53:43;;;;;;;9.77;4.20;;;14.70;1.00;;;;;;5007395;28;20455;-78
2021/09/24 07:56:10;;;;;;;21.57;5.87;;;14.80;1.00;;;;;;5013693;28;20453;-79
2021/09/24 07:58:38;;;;;;;12.60;4.80;;;14.90;1.00;;;;;;5011165;28;20450;-79
2021/09/24 08:01:05;;;;;;;19.67;4.93;;;14.90;1.00;;;;;;5011241;28;20470;-78
2021/09/24 08:03:32;;;;;;;16.27;5.47;;;15.00;1.00;;;;;;5010446;28;20450;-78
2021/09/24 08:05:59;;;;;;;20.60;6.07;;;15.00;1.00;;;;;;5010691;28;20885;-78
2021/09/24 08:08:27;;;;;;;14.80;5.07;;;15.20;1.00;;;;;;5015471;28;20471;-78
2021/09/24 08:10:54;;;;;;;18.60;5.80;;;15.30;1.00;;;;;;5011364;28;20442;-79
2021/09/24 08:13:21;;;;;;;13.90;5.47;;;15.50;1.00;;;;;;5008492;28;20717;-78
2021/09/24 08:15:49;;;;;;;15.63;5.47;;;15.50;1.00;;;;;;5012165;28;20483;-78
2021/09/24 08:18:17;;;;;;;16.13;4.97;;;15.60;1.00;;;;;;5006582;28;20498;-81
2021/09/24 08:20:45;;;;;;;16.57;5.57;;;15.60;1.00;;;;;;5009230;28;20470;-78
2021/09/24 08:23:13;;;;;;;10.37;4.33;;;15.70;1.00;;;;;;5019476;28;21603;-79
2021/09/24 08:25:41;;;;;;;14.70;5.63;;;15.80;1.00;;;;;;5016980;28;20477;-78
2021/09/24 08:28:08;;;;;;;16.37;4.47;;;15.90;1.00;;;;;;5010428;28;20450;-79
2021/09/24 08:30:35;;;;;;;14.03;5.43;;;16.10;1.00;;;;;;5008735;28;20475;-78
2021/09/24 08:33:02;;;;;;;18.07;5.70;;;16.20;1.00;;;;;;5013932;28;20468;-79
2021/09/24 08:35:30;;;;;;;17.20;5.60;;;16.30;1.00;;;;;;5014063;28;20639;-79
2021/09/24 08:37:57;;;;;;;13.00;4.90;;;16.30;1.00;;;;;;5015160;28;20442;-78
2021/09/24 08:40:26;;;;;;;17.87;5.40;;;16.40;1.00;;;;;;5014946;28;20470;-79
2021/09/24 08:42:54;;;;;;;18.83;5.80;;;16.50;1.00;;;;;;5014638;28;20458;-79
2021/09/24 08:45:28;;;;;;;13.27;5.80;;;16.70;1.00;;;;;;5013156;28;20542;-80
2021/09/24 08:47:56;;;;;;;19.57;5.93;;;16.90;1.00;;;;;;5018626;28;21471;-80
2021/09/24 08:50:24;;;;;;;18.67;4.70;;;16.90;1.00;;;;;;5015330;28;20573;-79
2021/09/24 08:52:51;;;;;;;20.93;5.90;;;16.90;1.00;;;;;;5014642;28;20463;-79
2021/09/24 08:55:18;;;;;;;10.60;4.40;;;17.10;1.00;;;;;;5011267;28;20555;-77
2021/09/24 08:57:46;;;;;;;16.53;4.40;;;17.20;1.00;;;;;;5014907;28;21416;-79
2021/09/24 09:00:16;;;;;;;11.53;3.70;;;17.10;1.00;;;;;;5012857;28;20459;-78
2021/09/24 09:02:53;;;;;;;15.83;5.43;;;17.30;1.00;;;;;;5018126;28;20471;-79
2021/09/24 09:05:21;;;;;;;12.60;4.30;;;17.40;1.00;;;;;;5013310;28;20479;-79
2021/09/24 09:07:48;;;;;;;17.73;5.80;;;17.90;1.00;;;;;;5031582;28;20499;-78
2021/09/24 09:10:16;;;;;;;15.93;4.53;;;18.60;1.00;;;;;;5008208;28;20430;-78
2021/09/24 09:12:44;;;;;;;12.60;4.57;;;19.40;1.00;;;;;;5015474;28;20449;-80
2021/09/24 09:15:17;;;;;;;18.63;3.90;;;19.70;1.00;;;;;;5006954;28;20457;-79
2021/09/24 09:17:47;;;;;;;10.73;4.33;;;20.10;1.00;;;;;;5012632;28;20450;-79
2021/09/24 09:20:18;;;;;;;13.50;4.10;;;20.80;1.00;;;;;;5012633;28;20487;-80
2021/09/24 09:22:46;;;;;;;13.30;4.53;;;21.60;1.00;;;;;;5016290;28;20979;-79
2021/09/24 09:25:24;;;;;;;12.70;4.43;;;22.00;1.00;;;;;;5017189;28;20464;-77
2021/09/24 09:27:53;;;;;;;12.13;4.17;;;22.40;1.00;;;;;;5019471;28;20525;-80
2021/09/24 09:30:23;;;;;;;14.67;4.00;;;22.60;1.00;;;;;;5014229;28;20455;-80
2021/09/24 09:33:02;;;;;;;11.50;4.10;;;21.80;1.00;;;;;;5025643;28;21029;-79
2021/09/24 09:35:29;;;;;;;14.43;4.13;;;21.00;1.00;;;;;;5015816;28;20455;-79
2021/09/24 09:37:57;;;;;;;14.17;4.60;;;20.50;1.00;;;;;;5012585;28;21014;-78
2021/09/24 09:40:24;;;;;;;10.83;4.07;;;20.90;1.00;;;;;;5015016;28;20476;-80
2021/09/24 09:42:57;;;;;;;11.03;3.60;;;21.20;1.00;;;;;;5013202;28;20539;-78
2021/09/24 09:45:27;;;;;;;15.57;4.77;;;21.30;1.00;;;;;;5010786;28;21097;-77
2021/09/24 09:47:53;;;;;;;10.90;3.70;;;21.40;1.00;;;;;;5012233;28;20807;-77
2021/09/24 09:50:23;;;;;;;14.70;5.40;;;20.90;1.00;;;;;;5014522;28;20525;-79
2021/09/24 09:53:01;;;;;;;14.43;4.43;;;20.40;1.00;;;;;;5017949;28;20453;-82
2021/09/24 09:55:31;;;;;;;10.00;4.20;;;19.80;1.00;;;;;;5022458;28;20623;-79
2021/09/24 09:58:00;;;;;;;16.37;4.20;;;19.60;1.00;;;;;;5020891;28;20421;-78
2021/09/24 10:00:28;;;;;;;13.57;4.50;;;19.20;1.00;;;;;;5019528;28;20436;-78
2021/09/24 10:03:07;;;;;;;10.60;5.13;;;18.80;1.00;;;;;;5020662;28;20456;-77
2021/09/24 10:05:36;;;;;;;15.97;4.40;;;18.50;1.00;;;;;;5021410;28;20509;-79
2021/09/24 10:08:21;;;;;;;12.90;5.63;;;18.40;1.00;;;;;;5024335;28;20464;-78
2021/09/24 10:10:57;;;;;;;14.20;4.10;;;18.30;1.00;;;;;;5019327;28;20560;-78
2021/09/24 10:13:24;;;;;;;12.00;4.30;;;18.30;1.00;;;;;;5029298;28;20535;-77
2021/09/24 10:15:52;;;;;;;12.17;4.33;;;18.40;1.00;;;;;;5036108;28;20455;-78
2021/09/24 10:18:19;;;;;;;16.90;4.33;;;18.40;1.00;;;;;;5038156;28;20518;-78
2021/09/24 10:20:47;;;;;;;15.67;5.20;;;18.30;1.00;;;;;;5041114;28;20425;-77
2021/09/24 10:23:14;;;;;;;12.23;3.23;;;18.20;1.00;;;;;;5044320;28;20572;-78
2021/09/24 10:25:43;;;;;;;18.00;4.57;;;18.10;1.00;;;;;;5035922;28;20534;-77
2021/09/24 10:28:12;;;;;;;12.37;3.90;;;18.40;1.00;;;;;;5039530;28;20499;-77
2021/09/24 10:30:39;;;;;;;13.60;4.23;;;18.50;1.00;;;;;;5027072;28;20453;-78
2021/09/24 10:33:11;;;;;;;12.23;4.20;;;18.80;1.00;;;;;;5027915;28;20467;-77
2021/09/24 10:35:45;;;;;;;9.00;4.20;;;18.90;1.00;;;;;;5023503;28;20560;-78
2021/09/24 10:38:13;;;;;;;11.30;4.23;;;19.20;1.00;;;;;;5025083;28;20454;-79
2021/09/24 10:40:53;;;;;;;9.10;3.93;;;19.50;1.00;;;;;;5031824;28;20495;-77
2021/09/24 10:43:20;;;;;;;10.47;3.83;;;19.60;1.00;;;;;;5028655;28;20548;-79
2021/09/24 10:45:46;;;;;;;10.20;3.97;;;19.90;1.00;;;;;;5033093;28;20486;-77
2021/09/24 10:48:20;;;;;;;15.07;5.93;;;20.10;1.00;;;;;;5033552;28;20466;-79
2021/09/24 10:50:49;;;;;;;11.30;4.20;;;19.90;1.00;;;;;;5029856;28;20458;-78
2021/09/24 10:53:18;;;;;;;9.93;4.27;;;19.90;1.00;;;;;;5027651;28;21236;-76
2021/09/24 10:55:47;;;;;;;12.43;4.67;;;19.60;1.00;;;;;;5019807;28;20469;-78
2021/09/24 10:58:16;;;;;;;11.40;4.10;;;19.40;1.00;;;;;;5016829;28;20473;-78
2021/09/24 11:00:47;;;;;;;13.40;4.67;;;19.40;1.00;;;;;;5015993;28;20461;-78
2021/09/24 11:03:15;;;;;;;9.00;3.57;;;19.10;1.00;;;;;;5016094;28;20549;-79
2021/09/24 11:05:58;;;;;;;12.27;4.10;;;18.80;1.00;;;;;;5017727;28;21870;-78
2021/09/24 11:08:41;;;;;;;10.73;3.43;;;18.60;1.00;;;;;;5020037;28;20415;-79
2021/09/24 11:11:09;;;;;;;7.67;3.07;;;18.90;1.00;;;;;;5019515;28;20438;-78
2021/09/24 11:13:38;;;;;;;13.20;3.80;;;19.00;1.00;;;;;;5020420;28;20427;-78
2021/09/24 11:16:08;;;;;;;11.60;3.57;;;19.00;1.00;;;;;;5023298;28;20468;-78
2021/09/24 11:18:48;;;;;;;11.87;4.40;;;18.80;1.00;;;;;;5027310;28;20575;-78
2021/09/24 11:21:18;;;;;;;9.37;3.07;;;18.60;1.00;;;;;;5018691;28;20457;-78
2021/09/24 11:23:45;;;;;;;10.60;3.30;;;18.50;1.00;;;;;;5010916;28;20405;-78
2021/09/24 11:26:17;;;;;;;10.33;3.73;;;18.30;1.00;;;;;;5020495;28;21561;-78
2021/09/24 11:28:45;;;;;;;10.77;3.20;;;18.40;1.00;;;;;;5024861;28;21317;-78
2021/09/24 11:31:13;;;;;;;9.30;4.50;;;18.20;1.00;;;;;;5018314;28;20619;-80
2021/09/24 11:33:42;;;;;;;7.60;3.20;;;18.10;1.00;;;;;;5023618;28;20466;-81
2021/09/24 11:36:10;;;;;;;8.50;3.27;;;18.10;1.00;;;;;;5020628;28;21642;-79
2021/09/24 11:38:38;;;;;;;14.00;4.70;;;18.00;1.00;;;;;;5018660;28;20460;-79
2021/09/24 11:41:05;;;;;;;9.40;3.37;;;17.90;1.00;;;;;;5021579;28;21609;-78
2021/09/24 11:43:34;;;;;;;9.53;3.10;;;18.00;1.00;;;;;;5021549;28;20452;-82
2021/09/24 11:46:11;;;;;;;6.37;2.33;;;18.00;1.00;;;;;;5024221;28;20460;-79
2021/09/24 11:48:38;;;;;;;5.27;2.80;;;17.90;1.00;;;;;;5021155;28;20783;-78
2021/09/24 11:51:16;;;;;;;7.73;3.00;;;17.90;1.00;;;;;;5018680;28;21437;-78
2021/09/24 11:53:52;;;;;;;10.10;3.07;;;17.90;1.00;;;;;;5012381;28;20480;-80
2021/09/24 11:56:32;;;;;;;8.23;2.80;;;17.90;1.00;;;;;;5022162;28;20470;-80
2021/09/24 11:59:03;;;;;;;7.83;3.10;;;17.80;1.00;;;;;;5022287;28;20471;-79
2021/09/24 12:01:30;;;;;;;8.47;3.43;;;17.60;1.00;;;;;;5030408;28;20414;-78
2021/09/24 12:03:58;;;;;;;5.00;2.50;;;17.60;1.00;;;;;;5023150;28;20457;-79
2021/09/24 12:06:29;;;;;;;7.60;2.00;;;17.50;1.00;;;;;;5018773;28;20988;-79
2021/09/24 12:09:08;;;;;;;4.33;2.20;;;17.40;1.00;;;;;;5017627;28;20535;-80
2021/09/24 12:11:48;;;;;;;5.73;2.57;;;17.50;1.00;;;;;;5011928;28;20581;-81
2021/09/24 12:14:15;;;;;;;5.83;2.50;;;17.60;1.00;;;;;;5023621;28;20520;-80
2021/09/24 12:16:44;;;;;;;6.70;2.30;;;17.60;1.00;;;;;;5027158;28;20423;-81
2021/09/24 12:19:12;;;;;;;5.07;2.13;;;17.70;1.00;;;;;;5021170;28;20469;-81
2021/09/24 12:21:50;;;;;;;4.20;1.90;;;17.80;1.00;;;;;;5029085;28;21990;-79
2021/09/24 12:24:21;;;;;;;6.23;2.37;;;18.10;1.00;;;;;;5021285;28;20568;-82
2021/09/24 12:26:51;;;;;;;6.10;2.10;;;18.40;1.00;;;;;;5024660;28;20479;-80
2021/09/24 12:29:23;;;;;;;6.70;2.53;;;18.50;1.00;;;;;;5025924;28;20583;-78
2021/09/24 12:31:52;;;;;;;5.70;2.33;;;18.60;1.00;;;;;;5023552;28;20476;-78
2021/09/24 12:34:21;;;;;;;5.30;1.90;;;18.40;1.00;;;;;;5025567;28;20539;-81
2021/09/24 12:37:01;;;;;;;9.90;2.40;;;18.20;1.00;;;;;;5022559;28;20465;-79
2021/09/24 12:39:31;;;;;;;3.97;2.50;;;18.10;1.00;;;;;;5020713;28;20459;-79
2021/09/24 12:42:02;;;;;;;5.50;2.10;;;18.00;1.00;;;;;;5017265;28;20568;-79
2021/09/24 12:44:28;;;;;;;4.80;2.30;;;17.90;1.00;;;;;;5017270;28;20453;-80
2021/09/24 12:46:58;;;;;;;5.40;2.07;;;17.80;1.00;;;;;;5014306;28;20457;-80
2021/09/24 12:49:26;;;;;;;3.50;1.80;;;17.80;1.00;;;;;;5019276;28;20444;-79
2021/09/24 12:51:54;;;;;;;5.23;1.73;;;17.70;1.00;;;;;;5030594;28;20467;-79
2021/09/24 12:54:23;;;;;;;4.53;2.33;;;17.70;1.00;;;;;;5024815;28;20454;-80
2021/09/24 12:56:52;;;;;;;5.47;1.97;;;17.80;1.00;;;;;;5033503;28;20464;-80
2021/09/24 12:59:20;;;;;;;6.13;2.70;;;17.80;1.00;;;;;;5025615;28;20496;-79
2021/09/24 13:01:49;;;;;;;5.60;2.03;;;18.00;1.00;;;;;;5034601;28;20441;-80
2021/09/24 13:04:18;;;;;;;3.50;1.90;;;18.00;1.00;;;;;;5022670;28;20460;-81
2021/09/24 13:06:45;;;;;;;4.40;1.90;;;18.00;1.00;;;;;;5023430;28;20478;-81
2021/09/24 13:09:11;;;;;;;3.77;2.20;;;17.90;1.00;;;;;;5019476;28;20524;-79